Time;durP1;ratioP1;P1;durP2;ratioP2;P2;SDS_P1;SDS_P2;PMS_P1;PMS_P2;Temp;Humidity;BMP_temperature;BMP_pressure;BME280_temperature;BME280_humidity;BME280_pressure;Samples;Min_cycle;Max_cycle;Signal;HPM_P1;HPM_P2
2022/08/11 00:02:26;;;;;;;;;;;;;;;20.67;47.78;102134.63;4990779;28;19920;-85
2022/08/11 00:04:53;;;;;;;;;;;;;;;20.64;47.85;102140.88;4990880;28;19920;-85
2022/08/11 00:07:18;;;;;;;;;;;;;;;20.61;48.42;102140.13;4990010;28;20290;-85
2022/08/11 00:09:44;;;;;;;;;;;;;;;20.55;48.94;102138.56;4990869;28;19913;-85
2022/08/11 00:12:17;;;;;;;;;;;;;;;20.55;48.20;102132.44;4990621;28;20008;-84
2022/08/11 00:14:43;;;;;;;;;;;;;;;20.51;47.94;102127.28;4991125;28;19921;-84
2022/08/11 00:17:10;;;;;;;;;;;;;;;20.50;48.91;102132.63;4993924;28;20052;-84
2022/08/11 00:19:46;;;;;;;;;;;;;;;20.47;48.65;102127.44;4994421;28;20005;-85
2022/08/11 00:22:18;;;;;;;;;;;;;;;20.44;48.58;102136.34;4993289;28;19913;-84
2022/08/11 00:24:43;;;;;;;;;;;;;;;20.39;48.28;102125.09;4993914;28;19939;-84
2022/08/11 00:27:09;;;;;;;;;;;;;;;20.35;49.12;102126.13;4993298;28;19922;-85
2022/08/11 00:29:34;;;;;;;;;;;;;;;20.31;49.46;102130.66;4993551;28;19925;-85
2022/08/11 00:32:01;;;;;;;;;;;;;;;20.30;48.49;102122.78;4994175;28;19914;-84
2022/08/11 00:34:28;;;;;;;;;;;;;;;20.25;49.83;102128.22;4993996;28;19964;-85
2022/08/11 00:37:00;;;;;;;;;;;;;;;20.26;48.90;102132.59;4992887;28;19913;-84
2022/08/11 00:39:26;;;;;;;;;;;;;;;20.26;48.44;102129.94;4994132;28;19978;-85
2022/08/11 00:42:04;;;;;;;;;;;;;;;20.25;48.97;102132.66;4993454;28;19913;-85
2022/08/11 00:44:48;;;;;;;;;;;;;;;20.21;49.00;102130.13;4993798;28;20002;-84
2022/08/11 00:47:34;;;;;;;;;;;;;;;20.18;48.76;102126.72;4993867;28;19921;-84
2022/08/11 00:50:18;;;;;;;;;;;;;;;20.16;49.65;102126.78;4992559;28;19913;-84
2022/08/11 00:52:43;;;;;;;;;;;;;;;20.14;49.40;102127.75;4993396;28;20377;-85
2022/08/11 00:55:32;;;;;;;;;;;;;;;20.11;48.90;102126.09;4993255;28;19922;-85
2022/08/11 00:58:01;;;;;;;;;;;;;;;20.08;49.98;102125.34;4992611;28;20365;-85
2022/08/11 01:00:31;;;;;;;;;;;;;;;20.01;50.38;102122.91;4993415;28;19910;-85
2022/08/11 01:03:16;;;;;;;;;;;;;;;20.03;49.23;102120.22;4992976;28;20295;-84
2022/08/11 01:05:44;;;;;;;;;;;;;;;19.99;50.34;102116.81;4993981;28;19956;-86
2022/08/11 01:08:33;;;;;;;;;;;;;;;19.97;49.57;102115.16;4993237;28;19917;-85
2022/08/11 01:10:58;;;;;;;;;;;;;;;19.93;49.57;102116.19;4991493;28;19914;-85
2022/08/11 01:13:42;;;;;;;;;;;;;;;19.89;49.89;102113.66;4994920;28;20362;-85
2022/08/11 01:16:17;;;;;;;;;;;;;;;19.85;49.59;102117.28;4994408;28;19940;-85
2022/08/11 01:19:01;;;;;;;;;;;;;;;19.84;49.77;102114.69;4994201;28;19941;-85
2022/08/11 01:21:38;;;;;;;;;;;;;;;19.79;50.39;102120.13;5008326;28;19980;-85
2022/08/11 01:24:03;;;;;;;;;;;;;;;19.74;51.16;102122.91;4997174;28;19921;-86
2022/08/11 01:26:28;;;;;;;;;;;;;;;19.72;50.53;102126.50;4997596;28;19914;-85
2022/08/11 01:29:14;;;;;;;;;;;;;;;19.72;50.75;102130.00;4993127;28;19914;-85
2022/08/11 01:31:58;;;;;;;;;;;;;;;19.70;50.61;102128.34;4992489;28;19935;-85
2022/08/11 01:34:25;;;;;;;;;;;;;;;19.67;50.37;102131.91;4993258;28;20334;-85
2022/08/11 01:36:57;;;;;;;;;;;;;;;19.61;51.35;102134.78;4992959;28;19913;-84
2022/08/11 01:39:41;;;;;;;;;;;;;;;19.60;50.50;102130.41;4992601;28;19918;-85
2022/08/11 01:45:12;;;;;;;;;;;;;;;19.50;51.48;102137.75;4993009;28;19928;-84
2022/08/11 01:47:49;;;;;;;;;;;;;;;19.49;50.79;102128.13;4992071;28;19959;-85
2022/08/11 01:50:29;;;;;;;;;;;;;;;19.48;51.02;102128.19;4993017;28;19957;-85
2022/08/11 01:53:13;;;;;;;;;;;;;;;19.42;51.55;102123.97;4991876;28;19913;-85
2022/08/11 01:55:43;;;;;;;;;;;;;;;19.41;50.75;102132.78;4992449;28;19921;-85
2022/08/11 01:58:15;;;;;;;;;;;;;;;19.40;51.19;102124.03;4992488;28;19954;-85
2022/08/11 02:00:59;;;;;;;;;;;;;;;19.38;50.89;102135.50;4991946;28;19914;-85
2022/08/11 02:03:38;;;;;;;;;;;;;;;19.34;51.24;102137.38;4992491;28;19913;-85
2022/08/11 02:09:02;;;;;;;;;;;;;;;19.23;52.10;102135.09;4992916;28;19921;-85
2022/08/11 02:11:29;;;;;;;;;;;;;;;19.22;51.96;102132.50;4992442;28;19913;-85
2022/08/11 02:14:03;;;;;;;;;;;;;;;19.18;52.26;102130.88;4991290;28;19920;-84
2022/08/11 02:16:54;;;;;;;;;;;;;;;19.14;51.78;102135.34;4992402;28;19914;-85
2022/08/11 02:25:05;;;;;;;;;;;;;;;19.01;51.64;102134.03;4992561;28;19955;-86
2022/08/11 02:27:39;;;;;;;;;;;;;;;18.98;52.59;102137.59;4991728;28;19959;-85
2022/08/11 02:30:07;;;;;;;;;;;;;;;18.94;51.96;102135.97;4979316;23;20009;-85
2022/08/11 02:35:44;;;;;;;;;;;;;;;18.82;53.48;102129.28;4953324;29;19925;-85
2022/08/11 02:38:17;;;;;;;;;;;;;;;18.76;54.48;102126.84;4953346;28;19996;-85
2022/08/11 02:40:55;;;;;;;;;;;;;;;18.73;54.15;102121.66;4969375;28;19918;-84
2022/08/11 02:43:38;;;;;;;;;;;;;;;18.67;53.49;102126.22;4960435;28;19925;-84
2022/08/11 02:46:19;;;;;;;;;;;;;;;18.61;53.18;102115.84;4953231;28;19981;-84
2022/08/11 02:51:39;;;;;;;;;;;;;;;18.58;52.85;102115.94;4953210;28;19937;-84
2022/08/11 02:54:20;;;;;;;;;;;;;;;18.56;52.92;102117.75;4953024;28;20370;-84
2022/08/11 02:56:55;;;;;;;;;;;;;;;18.52;54.33;102127.47;4953528;28;19926;-85
2022/08/11 02:59:52;;;;;;;;;;;;;;;18.49;54.26;102126.72;4952529;28;19933;-85
2022/08/11 03:02:36;;;;;;;;;;;;;;;18.44;54.08;102124.22;4953262;28;19914;-85
2022/08/11 03:05:16;;;;;;;;;;;;;;;18.39;54.06;102125.25;4952987;28;19915;-86
2022/08/11 03:07:42;;;;;;;;;;;;;;;18.31;54.85;102128.97;4952893;29;20366;-84
2022/08/11 03:10:16;;;;;;;;;;;;;;;18.31;53.82;102123.69;4953053;28;19921;-84
2022/08/11 03:18:33;;;;;;;;;;;;;;;18.20;55.06;102126.59;4971630;28;19921;-85
2022/08/11 03:21:20;;;;;;;;;;;;;;;18.19;55.98;102119.63;4972090;28;19914;-85
2022/08/11 03:24:00;;;;;;;;;;;;;;;18.13;55.48;102116.31;4971428;28;19921;-85
2022/08/11 03:26:31;;;;;;;;;;;;;;;18.03;56.89;102116.56;4972054;28;19914;-85
2022/08/11 03:29:05;;;;;;;;;;;;;;;18.03;56.67;102116.56;4971548;28;19918;-85
2022/08/11 03:31:35;;;;;;;;;;;;;;;18.01;56.55;102125.38;4977471;28;19914;-86
2022/08/11 03:34:11;;;;;;;;;;;;;;;17.97;57.45;102118.47;4971685;28;19910;-85
2022/08/11 03:36:55;;;;;;;;;;;;;;;17.94;57.00;102124.66;4975980;28;19993;-85
2022/08/11 03:39:32;;;;;;;;;;;;;;;17.90;57.05;102126.50;4959843;28;20355;-85
2022/08/11 03:42:09;;;;;;;;;;;;;;;17.88;56.26;102124.81;4952522;29;19914;-85
2022/08/11 03:44:49;;;;;;;;;;;;;;;17.85;57.66;102130.97;4952321;28;19914;-85
2022/08/11 03:47:19;;;;;;;;;;;;;;;17.82;57.69;102124.97;4952679;28;19922;-85
2022/08/11 03:50:02;;;;;;;;;;;;;;;17.78;57.43;102129.44;4951952;28;19915;-85
2022/08/11 03:52:27;;;;;;;;;;;;;;;17.75;57.79;102119.00;4951463;28;19914;-85
2022/08/11 03:55:11;;;;;;;;;;;;;;;17.73;58.39;102113.78;4946353;28;19956;-85
2022/08/11 03:57:42;;;;;;;;;;;;;;;17.71;57.33;102118.22;4933278;28;19950;-84
2022/08/11 04:00:18;;;;;;;;;;;;;;;17.70;56.81;102116.50;4932250;29;19915;-85
2022/08/11 04:02:55;;;;;;;;;;;;;;;17.70;56.70;102113.00;4933783;28;20025;-84
2022/08/11 04:05:39;;;;;;;;;;;;;;;17.69;56.46;102119.16;4971755;28;19914;-84
2022/08/11 04:08:15;;;;;;;;;;;;;;;17.67;56.51;102127.09;4953671;28;20431;-84
2022/08/11 04:10:49;;;;;;;;;;;;;;;17.66;56.58;102120.09;4952356;28;19915;-84
2022/08/11 04:13:32;;;;;;;;;;;;;;;17.65;56.35;102121.00;4951708;28;19950;-84
2022/08/11 04:16:04;;;;;;;;;;;;;;;17.62;58.47;102114.97;4951629;28;19922;-84
2022/08/11 04:18:31;;;;;;;;;;;;;;;17.55;58.33;102109.84;4952090;28;20009;-85
2022/08/11 04:20:57;;;;;;;;;;;;;;;17.54;58.67;102112.53;4951327;29;19914;-85
2022/08/11 04:23:41;;;;;;;;;;;;;;;17.50;58.54;102109.13;4952059;29;20016;-84
2022/08/11 04:26:24;;;;;;;;;;;;;;;17.45;59.16;102117.06;4951594;28;20428;-85
2022/08/11 04:29:25;;;;;;;;;;;;;;;17.40;59.29;102118.97;4950970;28;19972;-84
2022/08/11 04:32:03;;;;;;;;;;;;;;;17.34;59.71;102113.84;5050284;28;19921;-84
2022/08/11 04:34:49;;;;;;;;;;;;;;;17.28;60.12;102125.34;4966984;28;19918;-85
2022/08/11 04:37:33;;;;;;;;;;;;;;;17.19;60.59;102120.31;4971336;28;19921;-85
2022/08/11 04:40:17;;;;;;;;;;;;;;;17.16;60.55;102117.78;4971079;28;19914;-84
2022/08/11 04:43:20;;;;;;;;;;;;;;;17.16;60.84;102124.78;4970343;28;20000;-86
2022/08/11 04:46:05;;;;;;;;;;;;;;;17.16;60.35;102115.16;4971976;28;19921;-90
2022/08/11 05:03:09;;;;;;;;;;;;;;;17.14;61.41;102120.44;4959368;28;19925;-85
2022/08/11 05:05:45;;;;;;;;;;;;;;;17.18;60.55;102122.97;4974274;28;19914;-87
2022/08/11 05:08:29;;;;;;;;;;;;;;;17.19;60.53;102115.06;4973826;28;20354;-86
2022/08/11 05:11:02;;;;;;;;;;;;;;;17.21;60.81;102120.31;4972687;28;20391;-86
2022/08/11 05:36:00;;;;;;;;;;;;;;;17.44;61.60;102135.50;4993254;28;20013;-85
2022/08/11 05:57:45;;;;;;;;;;;;;;;17.77;61.15;102127.69;4986856;28;19943;-88
2022/08/11 06:00:10;;;;;;;;;;;;;;;17.80;61.70;102122.38;4992786;28;20342;-88
2022/08/11 06:02:47;;;;;;;;;;;;;;;17.84;61.31;102126.66;4993820;28;19914;-88
2022/08/11 06:05:13;;;;;;;;;;;;;;;17.90;61.40;102133.53;4991717;28;19969;-87
2022/08/11 06:07:38;;;;;;;;;;;;;;;17.95;61.01;102131.63;4992192;28;20316;-86
2022/08/11 06:10:04;;;;;;;;;;;;;;;18.01;60.56;102126.22;4991873;28;20092;-85
2022/08/11 06:12:31;;;;;;;;;;;;;;;18.08;60.92;102129.56;4991443;28;19914;-86
2022/08/11 06:15:00;;;;;;;;;;;;;;;18.13;60.51;102134.69;4992362;28;20394;-88
2022/08/11 06:17:27;;;;;;;;;;;;;;;18.18;60.50;102138.91;4992640;28;20366;-88
2022/08/11 06:19:58;;;;;;;;;;;;;;;18.25;60.29;102134.38;4991644;28;19961;-84
2022/08/11 06:22:24;;;;;;;;;;;;;;;18.32;60.39;102137.69;4990487;28;19963;-84
2022/08/11 06:24:51;;;;;;;;;;;;;;;18.37;60.46;102135.81;4991742;28;20322;-85
2022/08/11 06:27:20;;;;;;;;;;;;;;;18.43;60.61;102133.00;4981471;28;19976;-84
2022/08/11 06:29:50;;;;;;;;;;;;;;;18.50;59.93;102139.84;4972588;28;19914;-84
2022/08/11 06:32:16;;;;;;;;;;;;;;;18.59;60.38;102143.94;4972859;28;19961;-84
2022/08/11 06:35:00;;;;;;;;;;;;;;;18.66;60.46;102142.88;4972091;28;19963;-84
2022/08/11 06:37:45;;;;;;;;;;;;;;;18.78;60.30;102132.91;4983261;28;19918;-85
2022/08/11 06:40:13;;;;;;;;;;;;;;;18.87;59.77;102124.75;4991418;28;20433;-85
2022/08/11 06:42:58;;;;;;;;;;;;;;;18.95;59.86;102138.56;4991231;28;19913;-85
2022/08/11 06:45:30;;;;;;;;;;;;;;;19.07;59.33;102144.34;4992141;28;19920;-85
2022/08/11 06:47:59;;;;;;;;;;;;;;;19.17;59.06;102140.53;4989245;28;19928;-85
2022/08/11 06:53:09;;;;;;;;;;;;;;;20.49;57.65;102149.34;4991983;28;19925;-85
2022/08/11 07:01:12;;;;;;;;;;;;;;;27.40;43.29;102146.28;4972563;28;19925;-86
2022/08/11 07:03:39;;;;;;;;;;;;;;;29.23;37.19;102148.75;4971460;28;20013;-86
2022/08/11 07:06:22;;;;;;;;;;;;;;;30.70;33.24;102147.34;4971991;28;20076;-85
2022/08/11 07:17:21;;;;;;;;;;;;;;;30.25;32.00;102145.50;4972030;28;19925;-85
2022/08/11 07:30:57;;;;;;;;;;;;;;;25.78;41.43;102143.91;4971433;28;19971;-85
2022/08/11 07:33:27;;;;;;;;;;;;;;;25.43;42.01;102144.16;4972518;28;19918;-85
2022/08/11 07:35:54;;;;;;;;;;;;;;;25.11;42.52;102136.22;4971673;28;19971;-85
2022/08/11 07:38:42;;;;;;;;;;;;;;;24.69;43.70;102138.53;4971307;28;19925;-85
2022/08/11 07:41:09;;;;;;;;;;;;;;;24.32;44.11;102138.69;4969576;28;20320;-85
2022/08/11 07:43:36;;;;;;;;;;;;;;;24.04;44.59;102144.59;4965913;28;20358;-86
2022/08/11 07:54:15;;;;;;;;;;;;;;;23.69;46.13;102141.91;4971322;28;20282;-89
2022/08/11 07:56:41;;;;;;;;;;;;;;;23.81;46.70;102143.94;4972164;28;19914;-93
2022/08/11 08:18:18;;;;;;;;;;;;;;;24.59;45.92;102139.94;4952603;29;20019;-88
2022/08/11 08:20:45;;;;;;;;;;;;;;;24.72;46.17;102141.00;4951916;29;19958;-88
2022/08/11 08:23:10;;;;;;;;;;;;;;;24.83;47.25;102138.63;4952246;29;19925;-87
2022/08/11 08:25:38;;;;;;;;;;;;;;;24.96;45.88;102145.91;4952190;29;19914;-88
2022/08/11 08:28:06;;;;;;;;;;;;;;;25.08;43.26;102145.22;4951498;29;19910;-88
2022/08/11 08:30:46;;;;;;;;;;;;;;;25.14;43.60;102139.53;4952297;28;19960;-88
2022/08/11 08:33:19;;;;;;;;;;;;;;;25.21;42.96;102133.91;4951562;29;20329;-87
2022/08/11 08:35:46;;;;;;;;;;;;;;;25.29;43.59;102145.78;4967208;28;19918;-85
2022/08/11 08:38:12;;;;;;;;;;;;;;;25.37;44.07;102148.00;4974176;28;19914;-85
2022/08/11 08:40:39;;;;;;;;;;;;;;;25.48;43.61;102135.91;4973973;28;20354;-84
2022/08/11 08:43:09;;;;;;;;;;;;;;;25.64;44.29;102141.19;4988758;28;20337;-85
2022/08/11 08:45:35;;;;;;;;;;;;;;;25.80;44.16;102135.81;4993778;28;19969;-85
2022/08/11 08:48:03;;;;;;;;;;;;;;;25.89;41.45;102138.78;4992932;28;19913;-85
2022/08/11 08:51:33;;;;;;;;;;;;;;;25.92;41.20;102134.25;4993683;28;19913;-85
2022/08/11 08:53:20;;;;;;;;;;;;;;;25.99;40.89;102136.44;4990403;23;19922;-86
2022/08/11 08:55:46;;;;;;;;;;;;;;;26.10;41.83;102129.66;4973345;28;19922;-86
2022/08/11 08:58:12;;;;;;;;;;;;;;;26.16;39.45;102129.25;4974200;28;19920;-85
2022/08/11 09:00:43;;;;;;;;;;;;;;;26.21;40.18;102130.69;4974550;28;19914;-86
2022/08/11 09:03:08;;;;;;;;;;;;;;;26.29;40.27;102134.69;4973541;28;20437;-85
2022/08/11 09:05:34;;;;;;;;;;;;;;;26.38;40.42;102133.25;4978555;28;20396;-85
2022/08/11 09:07:59;;;;;;;;;;;;;;;26.48;41.67;102129.94;4993779;28;19964;-85
2022/08/11 09:10:25;;;;;;;;;;;;;;;26.67;39.11;102131.41;4983283;28;19972;-85
2022/08/11 09:12:50;;;;;;;;;;;;;;;26.78;40.43;102136.09;4973620;28;19921;-85
2022/08/11 09:15:17;;;;;;;;;;;;;;;26.91;40.49;102136.16;4975176;28;19926;-85
2022/08/11 09:17:46;;;;;;;;;;;;;;;27.05;39.55;102132.59;4973205;28;19914;-86
2022/08/11 09:20:11;;;;;;;;;;;;;;;27.16;37.88;102129.22;4973708;28;20289;-86
2022/08/11 09:28:09;;;;;;;;;;;;;;;27.31;36.96;102132.69;4964725;23;19933;-84
2022/08/11 09:30:34;;;;;;;;;;;;;;;27.33;37.33;102133.44;4954743;28;19918;-87
2022/08/11 09:33:00;;;;;;;;;;;;;;;27.38;38.67;102124.19;4954100;28;19914;-85
2022/08/11 09:35:27;;;;;;;;;;;;;;;27.55;37.17;102120.41;4954336;28;20060;-86
2022/08/11 09:40:37;;;;;;;;;;;;;;;27.52;38.06;102117.94;4934986;29;19926;-86
2022/08/11 09:45:50;;;;;;;;;;;;;;;27.64;37.21;102118.91;4945431;28;19953;-86
2022/08/11 09:48:17;;;;;;;;;;;;;;;27.79;35.96;102113.50;4953677;28;20286;-86
2022/08/11 09:50:43;;;;;;;;;;;;;;;27.92;36.59;102113.53;4951402;29;20055;-85
2022/08/11 09:53:11;;;;;;;;;;;;;;;28.08;35.69;102110.66;4953535;29;20012;-86
2022/08/11 09:55:37;;;;;;;;;;;;;;;28.20;35.99;102109.81;4954372;29;20275;-86
2022/08/11 09:58:17;;;;;;;;;;;;;;;28.24;36.95;102113.13;4948901;28;19922;-86
2022/08/11 10:00:43;;;;;;;;;;;;;;;28.43;35.77;102105.50;4935031;29;19914;-86
2022/08/11 10:03:11;;;;;;;;;;;;;;;28.48;33.51;102105.16;4934118;29;19918;-86
2022/08/11 10:08:25;;;;;;;;;;;;;;;28.24;33.68;102105.94;4954338;28;19995;-86
2022/08/11 10:10:50;;;;;;;;;;;;;;;28.38;35.58;102091.59;4953358;28;20017;-85
2022/08/11 10:13:17;;;;;;;;;;;;;;;28.62;33.51;102104.16;4953151;29;20001;-86
2022/08/11 10:15:45;;;;;;;;;;;;;;;28.71;32.89;102100.81;4954111;28;19914;-87
2022/08/11 10:21:04;;;;;;;;;;;;;;;28.84;33.54;102094.59;4953060;29;19937;-86
2022/08/11 10:33:58;;;;;;;;;;;;;;;29.11;31.56;102097.03;4953658;29;20040;-87
2022/08/11 10:34:31;;;;;;;;;;;;;;;29.31;33.49;102081.34;4953338;28;20381;-85
2022/08/11 10:37:01;;;;;;;;;;;;;;;29.52;32.45;102084.19;4953465;28;19918;-85
2022/08/11 10:39:27;;;;;;;;;;;;;;;29.61;32.81;102079.97;4955981;28;20013;-86
2022/08/11 10:44:43;;;;;;;;;;;;;;;29.90;32.38;102080.38;4961813;28;19972;-86
2022/08/11 11:00:55;;;;;;;;;;;;;;;30.18;30.39;102063.00;4956412;28;19925;-84
2022/08/11 11:03:20;;;;;;;;;;;;;;;30.24;29.79;102063.47;4972320;28;19914;-86
2022/08/11 11:05:47;;;;;;;;;;;;;;;30.26;29.25;102067.75;4972514;28;19924;-86
2022/08/11 11:10:58;;;;;;;;;;;;;;;30.33;29.97;102052.03;4972272;28;19960;-85
2022/08/11 11:18:52;;;;;;;;;;;;;;;30.67;29.55;102052.00;4972618;28;20322;-87
2022/08/11 11:21:19;;;;;;;;;;;;;;;30.96;29.05;102051.38;4972241;28;19997;-86
2022/08/11 11:23:54;;;;;;;;;;;;;;;31.09;27.81;102054.75;4971157;28;19945;-86
2022/08/11 11:26:37;;;;;;;;;;;;;;;31.18;26.88;102046.91;4966979;28;19917;-89
2022/08/11 11:29:26;;;;;;;;;;;;;;;31.36;28.04;102049.88;4970347;28;19971;-89
2022/08/11 11:32:01;;;;;;;;;;;;;;;31.57;28.33;102047.19;4973249;28;19914;-89
2022/08/11 11:34:37;;;;;;;;;;;;;;;31.49;24.68;102036.25;4975585;28;20349;-91
2022/08/11 11:37:02;;;;;;;;;;;;;;;31.53;27.57;102045.72;4974885;28;19914;-92
2022/08/11 11:39:29;;;;;;;;;;;;;;;31.75;27.82;102031.34;4974151;28;20309;-88
2022/08/11 11:41:56;;;;;;;;;;;;;;;31.91;27.15;102038.03;4971912;28;19968;-84
2022/08/11 11:44:22;;;;;;;;;;;;;;;32.02;26.82;102032.56;4972544;28;20004;-90
2022/08/11 11:46:49;;;;;;;;;;;;;;;32.07;27.58;102033.00;4972427;28;20360;-88
2022/08/11 11:49:17;;;;;;;;;;;;;;;32.20;26.16;102036.28;4971788;28;19921;-87
2022/08/11 11:51:43;;;;;;;;;;;;;;;32.13;25.33;102029.75;4971290;28;19959;-87
2022/08/11 11:54:09;;;;;;;;;;;;;;;32.19;27.77;102031.06;4969806;28;19922;-88
2022/08/11 11:56:35;;;;;;;;;;;;;;;32.25;25.80;102018.94;4952726;28;20352;-87
2022/08/11 12:01:44;;;;;;;;;;;;;;;32.42;25.63;102026.34;4952891;28;19975;-88
2022/08/11 12:04:10;;;;;;;;;;;;;;;32.44;26.36;102021.66;4952264;28;20005;-86
2022/08/11 12:06:36;;;;;;;;;;;;;;;32.61;26.64;102012.03;4952053;28;19914;-86
2022/08/11 12:09:02;;;;;;;;;;;;;;;32.73;24.78;102006.53;4951992;28;19914;-88
2022/08/11 12:14:14;;;;;;;;;;;;;;;32.80;23.30;102013.09;4956066;28;20369;-87
2022/08/11 12:16:41;;;;;;;;;;;;;;;32.60;23.35;102009.50;4955516;28;20355;-88
2022/08/11 12:19:09;;;;;;;;;;;;;;;32.09;24.75;102012.22;4955858;28;20278;-87
2022/08/11 12:21:35;;;;;;;;;;;;;;;32.09;24.70;102012.22;4959148;28;19950;-88
2022/08/11 12:29:15;;;;;;;;;;;;;;;32.04;24.57;102004.56;4975170;28;20347;-91
2022/08/11 12:31:41;;;;;;;;;;;;;;;32.15;25.03;101997.38;4975688;28;20431;-89
2022/08/11 12:34:08;;;;;;;;;;;;;;;32.28;25.06;101991.81;4974002;28;19953;-87
2022/08/11 12:36:37;;;;;;;;;;;;;;;32.37;23.44;101996.34;4974532;28;19914;-86
2022/08/11 12:39:07;;;;;;;;;;;;;;;32.47;25.04;101991.00;4974567;28;19967;-87
2022/08/11 12:47:02;;;;;;;;;;;;;;;32.16;23.10;101975.78;4971970;28;19925;-88
2022/08/11 12:52:17;;;;;;;;;;;;;;;32.31;23.29;101968.22;4955088;29;20040;-88
2022/08/11 12:54:42;;;;;;;;;;;;;;;32.36;24.32;101962.41;4953440;28;19941;-86
2022/08/11 13:05:27;;;;;;;;;;;;;;;32.63;23.88;101959.00;4946395;29;20363;-86
2022/08/11 13:07:53;;;;;;;;;;;;;;;32.50;22.75;101953.94;4950879;29;19997;-86
2022/08/11 13:13:05;;;;;;;;;;;;;;;32.16;22.99;101948.06;4954100;28;19990;-84
2022/08/11 13:15:31;;;;;;;;;;;;;;;32.16;23.82;101951.63;4955170;28;19926;-87
2022/08/11 13:17:58;;;;;;;;;;;;;;;32.16;24.51;101942.72;4945206;29;20320;-86
2022/08/11 13:20:23;;;;;;;;;;;;;;;32.20;23.84;101936.91;4954473;29;19922;-85
2022/08/11 13:22:50;;;;;;;;;;;;;;;32.29;24.71;101937.13;4952922;28;19914;-86
2022/08/11 13:25:20;;;;;;;;;;;;;;;32.41;23.68;101938.69;4974425;28;19914;-89
2022/08/11 13:27:46;;;;;;;;;;;;;;;32.45;23.78;101928.50;4974337;28;19918;-85
2022/08/11 13:33:00;;;;;;;;;;;;;;;32.14;23.52;101923.22;4967479;28;20325;-87
2022/08/11 13:35:27;;;;;;;;;;;;;;;32.08;23.41;101924.63;4963053;28;19918;-87
2022/08/11 13:37:53;;;;;;;;;;;;;;;32.11;24.29;101921.66;4957200;28;19918;-86
2022/08/11 13:40:20;;;;;;;;;;;;;;;32.20;23.38;101926.16;4958773;28;19922;-91
2022/08/11 13:42:46;;;;;;;;;;;;;;;32.17;23.72;101921.09;4952478;28;19918;-92
2022/08/11 13:45:12;;;;;;;;;;;;;;;32.14;24.25;101916.00;4955276;28;19914;-86
2022/08/11 13:47:38;;;;;;;;;;;;;;;32.21;24.54;101918.97;4955282;28;20269;-93
2022/08/11 13:50:04;;;;;;;;;;;;;;;32.27;25.08;101913.06;4954938;29;19914;-92
2022/08/11 13:52:30;;;;;;;;;;;;;;;32.37;25.32;101909.56;4955234;29;20350;-93
2022/08/11 13:54:56;;;;;;;;;;;;;;;32.45;23.81;101913.22;4946270;28;19921;-93
2022/08/11 13:57:21;;;;;;;;;;;;;;;32.47;24.80;101913.09;4936629;28;19915;-92
2022/08/11 13:59:53;;;;;;;;;;;;;;;32.45;24.44;101907.00;4936248;29;20366;-92
2022/08/11 14:02:20;;;;;;;;;;;;;;;32.43;24.46;101903.59;4936247;29;19915;-94
2022/08/11 14:04:49;;;;;;;;;;;;;;;32.39;24.04;101910.22;4936150;29;19968;-93
2022/08/11 14:07:17;;;;;;;;;;;;;;;32.33;23.70;101899.09;4935971;28;19915;-93
2022/08/11 14:09:44;;;;;;;;;;;;;;;32.28;22.95;101901.34;4936224;29;19914;-94
2022/08/11 14:15:03;;;;;;;;;;;;;;;32.12;22.99;101895.66;4935697;29;19925;-92
2022/08/11 14:17:30;;;;;;;;;;;;;;;32.01;23.41;101900.19;4936212;29;19918;-93
2022/08/11 14:19:58;;;;;;;;;;;;;;;31.99;22.44;101898.59;4935080;28;19915;-93
2022/08/11 14:22:23;;;;;;;;;;;;;;;31.96;22.10;101897.03;4935706;28;20002;-92
2022/08/11 14:24:49;;;;;;;;;;;;;;;31.97;23.98;101900.59;4935786;29;19997;-90
2022/08/11 14:27:16;;;;;;;;;;;;;;;31.87;22.61;101898.72;4932345;28;19919;-93
2022/08/11 14:29:47;;;;;;;;;;;;;;;31.71;23.46;101893.88;4934213;29;20010;-93
2022/08/11 14:32:13;;;;;;;;;;;;;;;31.70;23.68;101885.97;4935292;29;19922;-93
2022/08/11 14:34:59;;;;;;;;;;;;;;;31.68;23.62;101890.59;4971102;28;20274;-91
2022/08/11 14:37:26;;;;;;;;;;;;;;;31.70;24.48;101891.34;4974334;28;19921;-92
2022/08/11 14:48:14;;;;;;;;;;;;;;;31.48;24.30;101878.97;4954292;29;19968;-92
2022/08/11 14:51:17;;;;;;;;;;;;;;;31.49;24.24;101889.56;4954307;29;20360;-91
2022/08/11 14:53:43;;;;;;;;;;;;;;;31.35;24.23;101876.53;4953205;28;19925;-91
2022/08/11 14:58:59;;;;;;;;;;;;;;;31.28;22.13;101876.22;4937941;29;19921;-92
2022/08/11 15:04:08;;;;;;;;;;;;;;;31.39;24.30;101869.91;4952605;28;19992;-92
2022/08/11 15:06:33;;;;;;;;;;;;;;;31.47;24.20;101855.84;4965938;28;19918;-91
2022/08/11 15:08:59;;;;;;;;;;;;;;;31.48;23.72;101865.53;4955973;28;19945;-91
2022/08/11 15:14:12;;;;;;;;;;;;;;;31.30;23.48;101855.47;4954008;29;19922;-92
2022/08/11 15:19:29;;;;;;;;;;;;;;;31.34;23.40;101858.72;4953927;29;19968;-93
2022/08/11 15:24:38;;;;;;;;;;;;;;;31.22;23.56;101849.97;4953665;29;19921;-94
2022/08/11 15:38:06;;;;;;;;;;;;;;;31.08;24.95;101838.56;4955647;29;20389;-92
2022/08/11 15:46:26;;;;;;;;;;;;;;;31.00;23.75;101830.38;4961274;29;19974;-96
2022/08/11 15:49:11;;;;;;;;;;;;;;;30.97;23.86;101830.63;4961676;29;19925;-96
2022/08/11 15:51:41;;;;;;;;;;;;;;;30.92;24.19;101831.03;4963994;29;19918;-96
2022/08/11 15:54:08;;;;;;;;;;;;;;;30.87;23.99;101827.06;4966766;29;19918;-96
2022/08/11 15:56:43;;;;;;;;;;;;;;;30.86;24.17;101825.34;4967739;29;19936;-96
2022/08/11 16:04:40;;;;;;;;;;;;;;;30.65;23.57;101816.34;4962962;29;19953;-96
2022/08/11 16:07:05;;;;;;;;;;;;;;;30.62;24.15;101813.97;4958095;29;19915;-95
2022/08/11 16:09:39;;;;;;;;;;;;;;;30.59;24.23;101806.19;4958470;29;19914;-94
2022/08/11 16:12:07;;;;;;;;;;;;;;;30.51;24.44;101808.66;4958425;28;19915;-94
2022/08/11 16:17:22;;;;;;;;;;;;;;;30.44;24.44;101802.97;4965344;28;19926;-96
2022/08/11 16:19:50;;;;;;;;;;;;;;;30.46;24.94;101797.47;4965644;28;20384;-96
2022/08/11 16:22:19;;;;;;;;;;;;;;;30.45;25.11;101793.09;5252643;23;19930;-96
2022/08/11 16:24:45;;;;;;;;;;;;;;;30.40;24.80;101796.16;5079802;23;20369;-96
2022/08/11 16:27:13;;;;;;;;;;;;;;;30.39;25.20;101796.31;5004842;28;19963;-96
2022/08/11 16:29:42;;;;;;;;;;;;;;;30.37;25.08;101796.41;5007056;28;19914;-96
2022/08/11 16:32:28;;;;;;;;;;;;;;;30.37;24.93;101790.22;5003061;28;19977;-96
2022/08/11 16:48:47;;;;;;;;;;;;;;;30.03;24.31;101789.41;4990463;28;19967;-85
2022/08/11 16:51:12;;;;;;;;;;;;;;;30.04;25.23;101785.78;4990508;28;19914;-86
2022/08/11 16:53:39;;;;;;;;;;;;;;;30.04;25.59;101776.88;4989704;28;19929;-86
2022/08/11 16:56:05;;;;;;;;;;;;;;;30.03;25.95;101777.84;4990095;28;19921;-87
2022/08/11 17:01:28;;;;;;;;;;;;;;;29.99;25.67;101777.25;4994289;28;19960;-96
